createdAt,value
2023-01-18T00:00:52.618Z,99031.47
2023-01-18T00:06:15.062Z,99024.84
2023-01-18T00:11:36.745Z,99022.69
2023-01-18T00:16:58.436Z,99031.53
2023-01-18T00:22:20.103Z,99028.19
2023-01-18T00:27:46.571Z,99033.19
2023-01-18T00:33:09.596Z,99034.88
2023-01-18T00:38:31.813Z,99036.25
2023-01-18T00:43:53.928Z,99043.19
2023-01-18T00:49:15.586Z,99050.94
2023-01-18T00:54:37.625Z,99052.59
2023-01-18T00:59:59.410Z,99057.59
2023-01-18T01:05:42.427Z,99057.06
2023-01-18T01:11:12.186Z,99057.31
2023-01-18T01:16:52.831Z,99060.94
2023-01-18T01:22:33.396Z,99065.41
2023-01-18T01:27:55.074Z,99085.84
2023-01-18T01:33:18.525Z,99085.28
2023-01-18T01:38:43.177Z,99090.28
2023-01-18T01:44:20.232Z,99094.13
2023-01-18T01:49:49.347Z,99101.06
2023-01-18T01:55:23.935Z,99097.47
2023-01-18T02:00:45.825Z,99099.16
2023-01-18T02:06:31.635Z,99108.25
2023-01-18T02:11:55.397Z,99104.41
2023-01-18T02:17:44.661Z,99115.72
2023-01-18T02:23:25.343Z,99109.66
2023-01-18T02:29:06.050Z,99114.09
2023-01-18T02:34:44.026Z,99123.50
2023-01-18T02:40:27.447Z,99121.28
2023-01-18T02:46:09.111Z,99130.94
2023-01-18T02:51:30.780Z,99128.44
2023-01-18T02:56:55.523Z,99135.06
2023-01-18T03:02:21.003Z,99139.22
2023-01-18T03:07:50.936Z,99143.94
2023-01-18T03:13:25.748Z,99145.31
2023-01-18T03:19:31.085Z,99150.00
2023-01-18T03:24:52.884Z,99157.19
2023-01-18T03:30:33.512Z,99153.88
2023-01-18T03:35:56.619Z,99154.97
2023-01-18T03:41:20.614Z,99158.56
2023-01-18T03:46:43.971Z,99152.78
2023-01-18T03:52:26.141Z,99159.97
2023-01-18T03:57:47.892Z,99166.03
2023-01-18T04:03:09.746Z,99174.59
2023-01-18T04:08:31.514Z,99186.75
2023-01-18T04:13:54.494Z,99189.75
2023-01-18T04:19:17.394Z,99193.59
2023-01-18T04:24:39.110Z,99194.69
2023-01-18T04:30:00.942Z,99210.75
2023-01-18T04:35:22.751Z,99204.66
2023-01-18T04:40:44.532Z,99204.91
2023-01-18T04:46:06.237Z,99214.28
2023-01-18T04:51:28.113Z,99208.25
2023-01-18T04:56:49.983Z,99208.25
2023-01-18T05:02:12.449Z,99223.41
2023-01-18T05:07:34.367Z,99232.78
2023-01-18T05:12:56.601Z,99231.16
2023-01-18T05:18:18.586Z,99248.81
2023-01-18T05:23:40.711Z,99244.41
2023-01-18T05:29:02.363Z,99252.13
2023-01-18T05:34:24.081Z,99258.72
2023-01-18T05:39:45.904Z,99259.84
2023-01-18T05:45:08.285Z,99258.16
2023-01-18T05:50:30.194Z,99259.56
2023-01-18T05:55:57.567Z,99275.25
2023-01-18T06:01:19.611Z,99278.31
2023-01-18T06:06:41.389Z,99274.44
2023-01-18T06:12:03.671Z,99285.28
2023-01-18T06:17:25.614Z,99300.28
2023-01-18T06:22:47.496Z,99305.25
2023-01-18T06:28:09.228Z,99321.16
2023-01-18T06:33:30.935Z,99314.31
2023-01-18T06:38:53.180Z,99331.81
2023-01-18T06:44:15.031Z,99332.72
2023-01-18T06:49:36.987Z,99344.22
2023-01-18T06:54:58.826Z,99353.66
2023-01-18T07:00:20.990Z,99346.25
2023-01-18T07:05:42.660Z,99356.94
2023-01-18T07:11:07.065Z,99364.50
2023-01-18T07:16:30.326Z,99372.66
2023-01-18T07:21:53.877Z,99385.22
2023-01-18T07:27:15.573Z,99403.00
2023-01-18T07:32:37.342Z,99399.44
2023-01-18T07:37:59.496Z,99401.34
2023-01-18T07:43:21.158Z,99407.44
2023-01-18T07:48:43.394Z,99415.63
2023-01-18T07:54:05.175Z,99413.50
2023-01-18T07:59:28.021Z,99418.16
2023-01-18T08:04:50.348Z,99425.38
2023-01-18T08:10:12.139Z,99430.94
2023-01-18T08:15:33.907Z,99432.41
2023-01-18T08:20:55.712Z,99440.25
2023-01-18T08:26:17.521Z,99448.63
2023-01-18T08:31:39.289Z,99459.34
2023-01-18T08:37:00.973Z,99465.13
2023-01-18T08:42:22.674Z,99471.69
2023-01-18T08:47:44.652Z,99481.28
2023-01-18T08:53:06.388Z,99501.13
2023-01-18T08:58:31.680Z,99497.66
2023-01-18T09:03:55.321Z,99500.81
2023-01-18T09:09:17.119Z,99506.38
2023-01-18T09:14:38.833Z,99504.78
2023-01-18T09:20:00.576Z,99522.00
2023-01-18T09:25:22.265Z,99527.56
2023-01-18T09:30:44.026Z,99525.69
2023-01-18T09:36:10.066Z,99535.94
2023-01-18T09:41:34.501Z,99539.53
2023-01-18T09:47:07.123Z,99542.56
2023-01-18T09:53:01.376Z,99556.16
2023-01-18T09:58:54.750Z,99552.28
2023-01-18T10:04:19.331Z,99562.78
2023-01-18T10:09:44.897Z,99564.19
2023-01-18T10:15:10.761Z,99569.72
2023-01-18T10:20:32.824Z,99580.44
2023-01-18T10:26:01.741Z,99584.56
2023-01-18T10:31:41.970Z,99588.13
2023-01-18T10:37:15.262Z,99581.16
2023-01-18T10:42:51.937Z,99594.16
2023-01-18T10:48:32.433Z,99597.22
2023-01-18T10:53:54.200Z,99592.00
2023-01-18T10:59:26.517Z,99601.72
2023-01-18T11:04:56.958Z,99597.56
2023-01-18T11:10:27.533Z,99595.94
2023-01-18T11:16:03.041Z,99595.16
2023-01-18T11:21:26.480Z,99596.84
2023-01-18T11:27:03.899Z,99599.63
2023-01-18T11:32:31.000Z,99594.09
2023-01-18T11:37:59.121Z,99584.41
2023-01-18T11:43:25.521Z,99589.69
2023-01-18T11:49:04.825Z,99578.00
2023-01-18T11:54:29.172Z,99589.94
2023-01-18T11:59:50.929Z,99589.63
2023-01-18T12:05:15.436Z,99593.25
2023-01-18T12:11:07.067Z,99596.84
2023-01-18T12:16:44.375Z,99604.00
2023-01-18T12:22:24.618Z,99606.78
2023-01-18T12:28:20.176Z,99617.91
2023-01-18T12:33:47.283Z,99615.69
2023-01-18T12:39:37.648Z,99615.09
2023-01-18T12:45:17.631Z,99613.97
2023-01-18T12:50:40.431Z,99614.47
2023-01-18T12:56:20.859Z,99616.13
2023-01-18T13:01:52.183Z,99625.53
2023-01-18T13:07:20.176Z,99637.72
2023-01-18T13:12:42.475Z,99624.72
2023-01-18T13:18:13.961Z,99630.56
2023-01-18T13:24:16.412Z,99648.03
2023-01-18T13:29:39.279Z,99649.44
2023-01-18T13:35:21.298Z,99643.94
2023-01-18T13:40:54.414Z,99639.50
2023-01-18T13:46:23.763Z,99647.28
2023-01-18T13:51:49.727Z,99655.59
2023-01-18T13:57:17.054Z,99661.66
2023-01-18T14:02:45.540Z,99673.25
2023-01-18T14:08:07.393Z,99682.13
2023-01-18T14:13:55.231Z,99681.53
2023-01-18T14:19:20.184Z,99680.16
2023-01-18T14:25:20.216Z,99671.00
2023-01-18T14:30:45.658Z,99688.41
2023-01-18T14:36:08.725Z,99695.63
2023-01-18T14:41:31.497Z,99694.25
2023-01-18T14:46:56.531Z,99682.09
2023-01-18T14:52:19.142Z,99692.69
2023-01-18T14:57:40.867Z,99704.91
2023-01-18T15:03:03.111Z,99711.53
2023-01-18T15:08:28.077Z,99719.84
2023-01-18T15:13:52.860Z,99727.88
2023-01-18T15:19:20.277Z,99718.16
2023-01-18T15:24:44.384Z,99721.50
2023-01-18T15:30:13.058Z,99726.19
2023-01-18T15:35:34.950Z,99736.97
2023-01-18T15:41:05.032Z,99743.88
2023-01-18T15:46:29.136Z,99751.34
2023-01-18T15:51:56.570Z,99758.00
2023-01-18T15:57:20.552Z,99751.94
2023-01-18T16:02:43.348Z,99751.94
2023-01-18T16:08:21.407Z,99755.84
2023-01-18T16:13:43.618Z,99765.56
2023-01-18T16:19:29.084Z,99766.69
2023-01-18T16:24:51.089Z,99771.09
2023-01-18T16:30:20.216Z,99774.44
2023-01-18T16:35:42.295Z,99786.91
2023-01-18T16:41:04.085Z,99785.53
2023-01-18T16:46:26.582Z,99792.44
2023-01-18T16:51:50.014Z,99806.84
2023-01-18T16:57:22.261Z,99819.56
2023-01-18T17:02:44.406Z,99821.22
2023-01-18T17:08:06.173Z,99823.13
2023-01-18T17:13:27.851Z,99836.69
2023-01-18T17:18:50.038Z,99831.38
2023-01-18T17:24:11.819Z,99838.53
2023-01-18T17:29:33.566Z,99841.56
2023-01-18T17:34:55.265Z,99836.63
2023-01-18T17:40:27.177Z,99848.09
2023-01-18T17:46:01.232Z,99845.72
2023-01-18T17:51:23.546Z,99848.75
2023-01-18T17:56:45.568Z,99841.75
2023-01-18T18:02:09.932Z,99861.13
2023-01-18T18:07:31.708Z,99866.69
2023-01-18T18:12:53.657Z,99882.28
2023-01-18T18:18:23.097Z,99885.66
2023-01-18T18:23:46.263Z,99888.97
2023-01-18T18:29:08.110Z,99895.38
2023-01-18T18:34:30.267Z,99907.88
2023-01-18T18:39:52.013Z,99921.16
2023-01-18T18:45:14.068Z,99930.06
2023-01-18T18:50:35.766Z,99933.94
2023-01-18T18:56:00.403Z,99947.53
2023-01-18T19:01:24.613Z,99955.84
2023-01-18T19:06:46.431Z,99958.31
2023-01-18T19:12:08.836Z,99965.97
2023-01-18T19:17:31.620Z,99972.81
2023-01-18T19:22:53.600Z,99962.97
2023-01-18T19:28:16.288Z,99977.09
2023-01-18T19:33:38.094Z,99983.41
2023-01-18T19:39:02.308Z,99982.84
2023-01-18T19:44:25.063Z,99989.81
2023-01-18T19:49:46.824Z,99969.78
2023-01-18T19:55:08.979Z,99974.00
2023-01-18T20:00:30.735Z,99978.53
2023-01-18T20:05:52.467Z,99981.69
2023-01-18T20:11:15.619Z,100003.16
2023-01-18T20:16:37.513Z,100005.94
2023-01-18T20:21:59.291Z,100017.03
2023-01-18T20:27:20.983Z,100012.53
2023-01-18T20:32:42.790Z,100023.63
2023-01-18T20:38:04.526Z,100025.25
2023-01-18T20:43:26.286Z,100025.78
2023-01-18T20:48:48.011Z,100028.00
2023-01-18T20:54:09.756Z,100037.72
2023-01-18T20:59:31.584Z,100045.81
2023-01-18T21:04:53.437Z,100055.56
2023-01-18T21:10:15.337Z,100049.50
2023-01-18T21:15:39.258Z,100055.97
2023-01-18T21:21:01.327Z,100051.00
2023-01-18T21:26:23.283Z,100059.34
2023-01-18T21:31:45.661Z,100074.13
2023-01-18T21:37:07.390Z,100070.81
2023-01-18T21:42:47.985Z,100083.59
2023-01-18T21:48:09.702Z,100080.28
2023-01-18T21:53:50.260Z,100077.72
2023-01-18T21:59:13.541Z,100088.25
2023-01-18T22:04:54.180Z,100097.66
2023-01-18T22:10:16.277Z,100100.38
2023-01-18T22:15:38.094Z,100110.34
2023-01-18T22:20:59.773Z,100108.94
2023-01-18T22:26:23.533Z,100113.06
2023-01-18T22:31:45.221Z,100110.81
2023-01-18T22:37:06.951Z,100116.00
2023-01-18T22:42:28.690Z,100117.38
2023-01-18T22:47:50.592Z,100122.88
2023-01-18T22:53:12.294Z,100124.50
2023-01-18T22:58:35.869Z,100134.50
2023-01-18T23:03:59.745Z,100139.41
2023-01-18T23:09:21.725Z,100138.53
2023-01-18T23:15:01.761Z,100137.69
2023-01-18T23:20:26.830Z,100141.25
2023-01-18T23:25:54.471Z,100143.97
2023-01-18T23:31:17.985Z,100149.72
2023-01-18T23:36:39.757Z,100145.00
2023-01-18T23:42:20.139Z,100154.69
2023-01-18T23:48:00.520Z,100155.47
2023-01-18T23:53:40.835Z,100160.72
2023-01-18T23:59:02.844Z,100153.41
